sensor_id;sensor_type;location;lat;lon;timestamp;P1;durP1;ratioP1;P2;durP2;ratioP2
53285;SDS011;39171;45.550;12.074;2022-08-21T00:05:26;1.33;;;0.98;;
53285;SDS011;39171;45.550;12.074;2022-08-21T00:11:35;1.13;;;0.90;;
53285;SDS011;39171;45.550;12.074;2022-08-21T00:17:38;1.75;;;1.00;;
53285;SDS011;39171;45.550;12.074;2022-08-21T00:23:40;1.17;;;0.90;;
53285;SDS011;39171;45.550;12.074;2022-08-21T00:29:42;0.98;;;0.70;;
53285;SDS011;39171;45.550;12.074;2022-08-21T00:35:44;1.88;;;1.10;;
53285;SDS011;39171;45.550;12.074;2022-08-21T00:41:46;1.52;;;1.10;;
53285;SDS011;39171;45.550;12.074;2022-08-21T00:47:49;1.45;;;1.05;;
53285;SDS011;39171;45.550;12.074;2022-08-21T00:53:53;1.00;;;0.80;;
53285;SDS011;39171;45.550;12.074;2022-08-21T00:59:58;1.10;;;0.80;;
53285;SDS011;39171;45.550;12.074;2022-08-21T01:06:05;1.50;;;0.90;;
53285;SDS011;39171;45.550;12.074;2022-08-21T01:12:07;1.63;;;0.90;;
53285;SDS011;39171;45.550;12.074;2022-08-21T01:18:10;1.85;;;1.02;;
53285;SDS011;39171;45.550;12.074;2022-08-21T01:24:13;1.63;;;0.90;;
53285;SDS011;39171;45.550;12.074;2022-08-21T01:30:18;1.10;;;0.77;;
53285;SDS011;39171;45.550;12.074;2022-08-21T01:36:23;1.50;;;0.80;;
53285;SDS011;39171;45.550;12.074;2022-08-21T01:42:24;3.88;;;1.25;;
53285;SDS011;39171;45.550;12.074;2022-08-21T01:48:26;1.27;;;0.80;;
53285;SDS011;39171;45.550;12.074;2022-08-21T01:54:28;0.95;;;0.63;;
53285;SDS011;39171;45.550;12.074;2022-08-21T02:00:30;1.77;;;1.10;;
53285;SDS011;39171;45.550;12.074;2022-08-21T02:06:32;1.63;;;0.90;;
53285;SDS011;39171;45.550;12.074;2022-08-21T02:12:34;1.38;;;0.90;;
53285;SDS011;39171;45.550;12.074;2022-08-21T02:18:36;1.15;;;0.80;;
53285;SDS011;39171;45.550;12.074;2022-08-21T02:24:37;1.10;;;0.80;;
53285;SDS011;39171;45.550;12.074;2022-08-21T02:30:41;1.52;;;0.80;;
53285;SDS011;39171;45.550;12.074;2022-08-21T02:36:44;1.08;;;0.77;;
53285;SDS011;39171;45.550;12.074;2022-08-21T02:42:46;1.55;;;1.00;;
53285;SDS011;39171;45.550;12.074;2022-08-21T02:48:48;1.50;;;1.08;;
53285;SDS011;39171;45.550;12.074;2022-08-21T02:54:49;1.17;;;0.93;;
53285;SDS011;39171;45.550;12.074;2022-08-21T03:00:51;1.10;;;0.90;;
53285;SDS011;39171;45.550;12.074;2022-08-21T03:06:53;1.85;;;1.33;;
53285;SDS011;39171;45.550;12.074;2022-08-21T03:12:54;1.50;;;1.10;;
53285;SDS011;39171;45.550;12.074;2022-08-21T03:18:56;1.65;;;1.27;;
53285;SDS011;39171;45.550;12.074;2022-08-21T03:24:57;2.20;;;1.42;;
53285;SDS011;39171;45.550;12.074;2022-08-21T03:31:00;1.88;;;1.40;;
53285;SDS011;39171;45.550;12.074;2022-08-21T03:37:02;1.95;;;1.25;;
53285;SDS011;39171;45.550;12.074;2022-08-21T03:43:04;2.00;;;1.38;;
53285;SDS011;39171;45.550;12.074;2022-08-21T03:49:07;1.63;;;1.20;;
53285;SDS011;39171;45.550;12.074;2022-08-21T03:55:08;2.22;;;1.58;;
53285;SDS011;39171;45.550;12.074;2022-08-21T04:01:10;2.28;;;1.50;;
53285;SDS011;39171;45.550;12.074;2022-08-21T04:07:12;1.90;;;1.33;;
53285;SDS011;39171;45.550;12.074;2022-08-21T04:13:14;1.90;;;1.35;;
53285;SDS011;39171;45.550;12.074;2022-08-21T04:19:16;3.58;;;1.58;;
53285;SDS011;39171;45.550;12.074;2022-08-21T04:25:18;1.50;;;1.10;;
53285;SDS011;39171;45.550;12.074;2022-08-21T04:31:22;1.60;;;1.10;;
53285;SDS011;39171;45.550;12.074;2022-08-21T04:37:24;1.73;;;1.10;;
53285;SDS011;39171;45.550;12.074;2022-08-21T04:43:26;1.63;;;1.25;;
53285;SDS011;39171;45.550;12.074;2022-08-21T04:49:29;1.40;;;1.13;;
53285;SDS011;39171;45.550;12.074;2022-08-21T04:55:32;1.67;;;1.20;;
53285;SDS011;39171;45.550;12.074;2022-08-21T05:01:34;1.65;;;1.38;;
53285;SDS011;39171;45.550;12.074;2022-08-21T05:07:38;1.67;;;1.20;;
53285;SDS011;39171;45.550;12.074;2022-08-21T05:13:41;2.83;;;1.35;;
53285;SDS011;39171;45.550;12.074;2022-08-21T05:19:43;2.13;;;1.40;;
53285;SDS011;39171;45.550;12.074;2022-08-21T05:25:44;1.65;;;1.33;;
53285;SDS011;39171;45.550;12.074;2022-08-21T05:31:46;1.55;;;1.05;;
53285;SDS011;39171;45.550;12.074;2022-08-21T05:37:48;1.60;;;1.20;;
53285;SDS011;39171;45.550;12.074;2022-08-21T05:43:50;1.55;;;1.15;;
53285;SDS011;39171;45.550;12.074;2022-08-21T05:49:52;1.20;;;1.00;;
53285;SDS011;39171;45.550;12.074;2022-08-21T05:55:53;1.95;;;1.00;;
53285;SDS011;39171;45.550;12.074;2022-08-21T06:01:55;1.30;;;1.00;;
53285;SDS011;39171;45.550;12.074;2022-08-21T06:07:56;1.30;;;0.90;;
53285;SDS011;39171;45.550;12.074;2022-08-21T06:13:58;1.73;;;1.10;;
53285;SDS011;39171;45.550;12.074;2022-08-21T06:19:59;0.98;;;0.82;;
53285;SDS011;39171;45.550;12.074;2022-08-21T06:26:01;1.30;;;0.90;;
53285;SDS011;39171;45.550;12.074;2022-08-21T06:32:04;1.20;;;0.70;;
53285;SDS011;39171;45.550;12.074;2022-08-21T06:38:09;0.80;;;0.70;;
53285;SDS011;39171;45.550;12.074;2022-08-21T06:44:11;0.80;;;0.60;;
53285;SDS011;39171;45.550;12.074;2022-08-21T06:50:13;0.50;;;0.50;;
53285;SDS011;39171;45.550;12.074;2022-08-21T06:56:14;0.90;;;0.60;;
53285;SDS011;39171;45.550;12.074;2022-08-21T07:02:16;0.60;;;0.47;;
53285;SDS011;39171;45.550;12.074;2022-08-21T07:08:18;0.60;;;0.55;;
53285;SDS011;39171;45.550;12.074;2022-08-21T07:14:19;0.77;;;0.60;;
53285;SDS011;39171;45.550;12.074;2022-08-21T07:20:21;0.60;;;0.50;;
53285;SDS011;39171;45.550;12.074;2022-08-21T07:26:23;0.85;;;0.68;;
53285;SDS011;39171;45.550;12.074;2022-08-21T07:32:26;0.52;;;0.40;;
53285;SDS011;39171;45.550;12.074;2022-08-21T07:38:28;0.60;;;0.40;;
53285;SDS011;39171;45.550;12.074;2022-08-21T07:44:29;0.70;;;0.50;;
53285;SDS011;39171;45.550;12.074;2022-08-21T07:50:31;0.60;;;0.45;;
53285;SDS011;39171;45.550;12.074;2022-08-21T07:56:32;0.40;;;0.40;;
53285;SDS011;39171;45.550;12.074;2022-08-21T08:02:34;0.50;;;0.40;;
53285;SDS011;39171;45.550;12.074;2022-08-21T08:08:36;0.55;;;0.40;;
53285;SDS011;39171;45.550;12.074;2022-08-21T08:14:37;0.50;;;0.40;;
53285;SDS011;39171;45.550;12.074;2022-08-21T08:20:39;0.50;;;0.40;;
53285;SDS011;39171;45.550;12.074;2022-08-21T08:26:41;1.35;;;0.82;;
53285;SDS011;39171;45.550;12.074;2022-08-21T08:32:43;0.52;;;0.40;;
53285;SDS011;39171;45.550;12.074;2022-08-21T08:38:46;0.70;;;0.47;;
53285;SDS011;39171;45.550;12.074;2022-08-21T08:44:50;0.77;;;0.57;;
53285;SDS011;39171;45.550;12.074;2022-08-21T08:50:57;0.85;;;0.63;;
53285;SDS011;39171;45.550;12.074;2022-08-21T08:57:02;0.73;;;0.40;;
53285;SDS011;39171;45.550;12.074;2022-08-21T09:03:07;0.90;;;0.52;;
53285;SDS011;39171;45.550;12.074;2022-08-21T09:15:36;0.65;;;0.50;;
53285;SDS011;39171;45.550;12.074;2022-08-21T09:28:17;0.95;;;0.68;;
53285;SDS011;39171;45.550;12.074;2022-08-21T09:34:26;1.58;;;0.80;;
53285;SDS011;39171;45.550;12.074;2022-08-21T09:46:34;1.50;;;0.90;;
53285;SDS011;39171;45.550;12.074;2022-08-21T09:52:41;0.88;;;0.60;;
53285;SDS011;39171;45.550;12.074;2022-08-21T09:58:49;0.82;;;0.52;;
53285;SDS011;39171;45.550;12.074;2022-08-21T10:04:53;1.35;;;0.70;;
53285;SDS011;39171;45.550;12.074;2022-08-21T10:11:11;2.25;;;0.95;;
53285;SDS011;39171;45.550;12.074;2022-08-21T10:30:15;1.70;;;1.00;;
53285;SDS011;39171;45.550;12.074;2022-08-21T10:36:33;1.67;;;1.02;;
53285;SDS011;39171;45.550;12.074;2022-08-21T10:55:26;1.30;;;0.95;;
53285;SDS011;39171;45.550;12.074;2022-08-21T11:07:53;2.75;;;1.00;;
53285;SDS011;39171;45.550;12.074;2022-08-21T11:14:08;1.63;;;1.10;;
53285;SDS011;39171;45.550;12.074;2022-08-21T11:20:15;2.00;;;1.20;;
53285;SDS011;39171;45.550;12.074;2022-08-21T11:26:47;1.73;;;1.00;;
53285;SDS011;39171;45.550;12.074;2022-08-21T11:39:28;1.30;;;0.82;;
53285;SDS011;39171;45.550;12.074;2022-08-21T11:45:44;1.58;;;1.00;;
53285;SDS011;39171;45.550;12.074;2022-08-21T12:04:44;1.45;;;0.85;;
53285;SDS011;39171;45.550;12.074;2022-08-21T12:10:58;2.03;;;0.85;;
53285;SDS011;39171;45.550;12.074;2022-08-21T12:17:06;1.20;;;0.80;;
53285;SDS011;39171;45.550;12.074;2022-08-21T12:29:25;1.37;;;0.97;;
53285;SDS011;39171;45.550;12.074;2022-08-21T12:35:33;1.55;;;0.90;;
53285;SDS011;39171;45.550;12.074;2022-08-21T12:41:45;1.75;;;1.20;;
53285;SDS011;39171;45.550;12.074;2022-08-21T12:47:57;1.88;;;1.10;;
53285;SDS011;39171;45.550;12.074;2022-08-21T13:00:11;1.75;;;1.20;;
53285;SDS011;39171;45.550;12.074;2022-08-21T13:06:15;1.98;;;1.17;;
53285;SDS011;39171;45.550;12.074;2022-08-21T13:12:20;2.38;;;1.40;;
53285;SDS011;39171;45.550;12.074;2022-08-21T13:18:23;2.33;;;1.10;;
53285;SDS011;39171;45.550;12.074;2022-08-21T13:24:35;2.47;;;1.20;;
53285;SDS011;39171;45.550;12.074;2022-08-21T13:30:39;4.38;;;1.30;;
53285;SDS011;39171;45.550;12.074;2022-08-21T13:36:55;1.95;;;1.27;;
53285;SDS011;39171;45.550;12.074;2022-08-21T13:42:59;2.20;;;1.30;;
53285;SDS011;39171;45.550;12.074;2022-08-21T13:49:03;2.00;;;1.20;;
53285;SDS011;39171;45.550;12.074;2022-08-21T13:55:12;2.67;;;1.58;;
53285;SDS011;39171;45.550;12.074;2022-08-21T14:01:21;2.08;;;1.10;;
53285;SDS011;39171;45.550;12.074;2022-08-21T14:07:41;1.90;;;1.10;;
53285;SDS011;39171;45.550;12.074;2022-08-21T14:13:45;1.50;;;0.80;;
53285;SDS011;39171;45.550;12.074;2022-08-21T14:19:50;2.03;;;1.30;;
53285;SDS011;39171;45.550;12.074;2022-08-21T14:25:51;1.30;;;0.80;;
53285;SDS011;39171;45.550;12.074;2022-08-21T14:31:58;1.92;;;1.00;;
53285;SDS011;39171;45.550;12.074;2022-08-21T14:38:12;3.05;;;1.90;;
53285;SDS011;39171;45.550;12.074;2022-08-21T14:44:22;2.97;;;1.73;;
53285;SDS011;39171;45.550;12.074;2022-08-21T14:50:24;2.05;;;1.40;;
53285;SDS011;39171;45.550;12.074;2022-08-21T14:56:26;2.53;;;1.80;;
53285;SDS011;39171;45.550;12.074;2022-08-21T15:02:27;2.70;;;1.50;;
53285;SDS011;39171;45.550;12.074;2022-08-21T15:08:29;2.30;;;1.50;;
53285;SDS011;39171;45.550;12.074;2022-08-21T15:14:32;2.20;;;1.33;;
53285;SDS011;39171;45.550;12.074;2022-08-21T15:20:36;1.92;;;1.40;;
53285;SDS011;39171;45.550;12.074;2022-08-21T15:26:38;1.75;;;1.00;;
53285;SDS011;39171;45.550;12.074;2022-08-21T15:32:39;2.13;;;1.20;;
53285;SDS011;39171;45.550;12.074;2022-08-21T15:38:43;2.33;;;1.00;;
53285;SDS011;39171;45.550;12.074;2022-08-21T15:44:45;1.70;;;1.10;;
53285;SDS011;39171;45.550;12.074;2022-08-21T15:50:48;1.95;;;1.20;;
53285;SDS011;39171;45.550;12.074;2022-08-21T15:56:49;1.98;;;1.10;;
53285;SDS011;39171;45.550;12.074;2022-08-21T16:02:53;1.80;;;1.10;;
53285;SDS011;39171;45.550;12.074;2022-08-21T16:08:56;1.50;;;0.90;;
53285;SDS011;39171;45.550;12.074;2022-08-21T16:14:59;2.42;;;1.30;;
53285;SDS011;39171;45.550;12.074;2022-08-21T16:21:02;2.45;;;1.20;;
53285;SDS011;39171;45.550;12.074;2022-08-21T16:27:04;2.80;;;1.20;;
53285;SDS011;39171;45.550;12.074;2022-08-21T16:33:06;2.40;;;1.40;;
53285;SDS011;39171;45.550;12.074;2022-08-21T16:39:13;1.67;;;0.90;;
53285;SDS011;39171;45.550;12.074;2022-08-21T16:45:16;2.35;;;1.23;;
53285;SDS011;39171;45.550;12.074;2022-08-21T16:51:19;2.42;;;1.20;;
53285;SDS011;39171;45.550;12.074;2022-08-21T16:57:21;2.47;;;1.75;;
53285;SDS011;39171;45.550;12.074;2022-08-21T17:03:33;1.67;;;1.02;;
53285;SDS011;39171;45.550;12.074;2022-08-21T17:09:40;2.35;;;1.10;;
53285;SDS011;39171;45.550;12.074;2022-08-21T17:15:41;2.35;;;1.15;;
53285;SDS011;39171;45.550;12.074;2022-08-21T17:21:43;2.50;;;1.52;;
53285;SDS011;39171;45.550;12.074;2022-08-21T17:27:45;2.05;;;1.30;;
53285;SDS011;39171;45.550;12.074;2022-08-21T17:33:48;2.67;;;1.58;;
53285;SDS011;39171;45.550;12.074;2022-08-21T17:39:52;2.55;;;1.40;;
53285;SDS011;39171;45.550;12.074;2022-08-21T17:45:54;2.88;;;1.88;;
53285;SDS011;39171;45.550;12.074;2022-08-21T17:51:55;2.10;;;1.10;;
53285;SDS011;39171;45.550;12.074;2022-08-21T17:57:57;1.88;;;1.10;;
53285;SDS011;39171;45.550;12.074;2022-08-21T18:04:01;1.60;;;1.10;;
53285;SDS011;39171;45.550;12.074;2022-08-21T18:10:04;1.88;;;1.20;;
53285;SDS011;39171;45.550;12.074;2022-08-21T18:16:08;2.05;;;1.20;;
53285;SDS011;39171;45.550;12.074;2022-08-21T18:22:12;1.92;;;1.20;;
53285;SDS011;39171;45.550;12.074;2022-08-21T18:28:13;3.13;;;1.48;;
53285;SDS011;39171;45.550;12.074;2022-08-21T18:34:20;2.05;;;1.17;;
53285;SDS011;39171;45.550;12.074;2022-08-21T18:40:31;1.73;;;1.05;;
53285;SDS011;39171;45.550;12.074;2022-08-21T18:46:33;1.85;;;1.08;;
53285;SDS011;39171;45.550;12.074;2022-08-21T18:52:35;2.50;;;1.27;;
53285;SDS011;39171;45.550;12.074;2022-08-21T18:58:36;2.30;;;1.48;;
53285;SDS011;39171;45.550;12.074;2022-08-21T19:04:38;2.35;;;1.40;;
53285;SDS011;39171;45.550;12.074;2022-08-21T19:10:40;1.60;;;0.98;;
53285;SDS011;39171;45.550;12.074;2022-08-21T19:16:52;2.10;;;0.98;;
53285;SDS011;39171;45.550;12.074;2022-08-21T19:22:59;1.55;;;0.98;;
53285;SDS011;39171;45.550;12.074;2022-08-21T19:29:04;1.20;;;0.85;;
53285;SDS011;39171;45.550;12.074;2022-08-21T19:35:08;2.13;;;1.30;;
53285;SDS011;39171;45.550;12.074;2022-08-21T19:41:12;1.48;;;1.02;;
53285;SDS011;39171;45.550;12.074;2022-08-21T19:47:16;1.42;;;0.98;;
53285;SDS011;39171;45.550;12.074;2022-08-21T19:53:18;1.33;;;1.02;;
53285;SDS011;39171;45.550;12.074;2022-08-21T19:59:20;1.38;;;1.10;;
53285;SDS011;39171;45.550;12.074;2022-08-21T20:05:22;2.03;;;1.10;;
53285;SDS011;39171;45.550;12.074;2022-08-21T20:11:31;1.30;;;0.80;;
53285;SDS011;39171;45.550;12.074;2022-08-21T20:17:36;1.17;;;0.95;;
53285;SDS011;39171;45.550;12.074;2022-08-21T20:23:38;1.10;;;0.70;;
53285;SDS011;39171;45.550;12.074;2022-08-21T20:29:40;1.52;;;0.70;;
53285;SDS011;39171;45.550;12.074;2022-08-21T20:35:41;0.50;;;0.40;;
53285;SDS011;39171;45.550;12.074;2022-08-21T20:41:48;1.10;;;0.68;;
53285;SDS011;39171;45.550;12.074;2022-08-21T20:47:50;1.30;;;0.60;;
53285;SDS011;39171;45.550;12.074;2022-08-21T20:54:18;0.95;;;0.40;;
53285;SDS011;39171;45.550;12.074;2022-08-21T21:00:35;0.60;;;0.50;;
53285;SDS011;39171;45.550;12.074;2022-08-21T21:06:39;0.50;;;0.40;;
53285;SDS011;39171;45.550;12.074;2022-08-21T21:12:42;0.60;;;0.30;;
53285;SDS011;39171;45.550;12.074;2022-08-21T21:19:08;1.40;;;0.45;;
53285;SDS011;39171;45.550;12.074;2022-08-21T21:31:32;0.60;;;0.40;;
53285;SDS011;39171;45.550;12.074;2022-08-21T21:37:38;0.70;;;0.43;;
53285;SDS011;39171;45.550;12.074;2022-08-21T21:56:42;0.82;;;0.40;;
53285;SDS011;39171;45.550;12.074;2022-08-21T22:03:11;0.73;;;0.35;;
53285;SDS011;39171;45.550;12.074;2022-08-21T22:09:22;0.57;;;0.35;;
53285;SDS011;39171;45.550;12.074;2022-08-21T22:15:36;0.38;;;0.30;;
53285;SDS011;39171;45.550;12.074;2022-08-21T22:21:39;0.50;;;0.40;;
53285;SDS011;39171;45.550;12.074;2022-08-21T22:27:45;0.60;;;0.40;;
53285;SDS011;39171;45.550;12.074;2022-08-21T22:40:12;0.70;;;0.40;;
53285;SDS011;39171;45.550;12.074;2022-08-21T22:46:28;0.40;;;0.40;;
53285;SDS011;39171;45.550;12.074;2022-08-21T22:52:35;0.70;;;0.40;;
53285;SDS011;39171;45.550;12.074;2022-08-21T22:58:56;0.85;;;0.70;;
53285;SDS011;39171;45.550;12.074;2022-08-21T23:05:16;0.90;;;0.50;;
53285;SDS011;39171;45.550;12.074;2022-08-21T23:11:40;0.65;;;0.40;;
53285;SDS011;39171;45.550;12.074;2022-08-21T23:17:55;0.95;;;0.40;;
53285;SDS011;39171;45.550;12.074;2022-08-21T23:24:06;0.80;;;0.43;;
53285;SDS011;39171;45.550;12.074;2022-08-21T23:30:21;0.57;;;0.40;;
53285;SDS011;39171;45.550;12.074;2022-08-21T23:43:54;1.02;;;0.60;;
